アリススプリングス の空港の天気 - METARとTAF

アリス・スプリングス空港 ( YBAS / ASP ) - オーストラリア ノーザンテリトリーアリススプリングス
飛行場実況気象(Metar)
観測時間06/16 18:00 ACST (06/16 08:30 UTC)
風向・風速南東 4m/s
視程10km以上
天気現象
なし
気温18℃
湿度37%
気圧1022hPa
METARYBAS 160830Z AUTO 13007KT 9999 // NCD 18/03 Q1022 RF00.0/000.2
過去の天気等 Google飛行場航空写真 Wunderground天気予報

過去48時間のMETAR

飛行場予報(TAF)
発表時間: 6/16 14:34 ACST (6/16 05:04 UTC)
予報対象時間: 16日15時 ACST ~ 17日15時 ACST
風向・風速東南東 5m/s
視程10km以上
なし
16日18時 ACST から
風向・風速東 3m/s
視程10km以上
なし
17日1時 ACST から
風向・風速西北西 3m/s
視程10km以上
なし
17日9時 ACST から
風向・風速東 4m/s
視程10km以上
少しの雲 雲底高度 1520m
TAF YBAS 160504Z 1606/1706 12010KT CAVOK
FM160900 10005KT CAVOK
FM161600 30005KT CAVOK
FM170000 08008KT 9999 FEW050